Latest Weather Observations for Moomba Airport

IDS60801

Issued at 8:05 am CDT Friday 28 November 2014 (issued every 30 minutes, with the page automatically refreshed every 10 minutes)

About weather observations | Map of weather stations | Latest weather observations for SA | Other Formats
Station Details ID: 017123 Name: MOOMBA AIRPORT Lat: -28.10 Lon: 140.20 Height: 37.8 m
Data from the previous 72 hours. | See also: Recent months at Moomba Airport
Date/Time
CDT
Temp
°C
App
Temp
°C
Dew
Point
Rel
Hum
%
Delta-T
°C
Wind Press
QNH
hPa
Press
MSL
hPa
Rain
since 9 am
mm
Dir
 
Spd
km/h
Gust
km/h
Spd
kts
Gust
kts
28/08:00am 27.0 20.3 3.5 22 11.7 SE 28 35 15 19 1013.9 1013.7 0.0
28/07:30am 26.2 20.2 3.4 23 11.3 SE 24 32 13 17 1013.6 1013.4 0.0
28/07:00am 25.1 19.7 2.5 23 10.9 SE 20 28 11 15 1013.6 1013.4 0.0
28/06:30am 24.5 19.2 2.0 23 10.7 SE 19 28 10 15 1013.3 1013.1 0.0
28/06:00am 24.1 18.7 1.1 22 10.7 SE 19 24 10 13 1012.9 1012.7 0.0
28/05:30am 24.6 18.9 0.8 21 11.1 SE 20 28 11 15 1012.6 1012.4 0.0
28/05:00am 25.1 19.5 1.3 21 11.2 SE 20 28 11 15 1012.2 1012.0 0.0
28/04:30am 24.7 19.2 0.9 21 11.1 SE 19 24 10 13 1012.2 1012.0 0.0
28/04:00am 25.1 19.7 1.3 21 11.2 SE 19 24 10 13 1012.2 1012.0 0.0
28/03:30am 24.9 20.0 1.7 22 11.0 SSE 17 20 9 11 1012.3 1012.1 0.0
28/03:00am 24.5 20.3 1.4 22 10.9 S 13 17 7 9 1012.4 1012.2 0.0
28/02:30am 25.9 21.2 1.2 20 11.7 S 15 20 8 11 1012.5 1012.3 0.0
28/02:00am 26.6 21.7 1.8 20 11.9 SSE 17 22 9 12 1012.5 1012.3 0.0
28/01:30am 27.1 22.1 1.5 19 12.3 SSE 17 24 9 13 1012.8 1012.6 0.0
28/01:00am 27.4 22.5 1.8 19 12.4 S 17 22 9 12 1013.2 1013.0 0.0
28/12:30am 28.0 23.1 2.2 19 12.6 S 17 22 9 12 1013.4 1013.2 0.0
28/12:00am 28.7 23.4 2.1 18 13.1 S 19 26 10 14 1013.6 1013.4 0.0
 
Date/Time
CDT
Temp
°C
App
Temp
°C
Dew
Point
Rel
Hum
%
Delta-T
°C
Wind Press
QNH
hPa
Press
MSL
hPa
Rain
since 9 am
mm
Dir
 
Spd
km/h
Gust
km/h
Spd
kts
Gust
kts
27/11:30pm 29.2 23.7 1.7 17 13.5 S 20 24 11 13 1013.8 1013.6 0.0
27/11:00pm 29.7 24.2 2.1 17 13.7 S 20 28 11 15 1013.7 1013.5 0.0
27/10:30pm 30.2 24.7 1.6 16 14.1 S 20 28 11 15 1013.6 1013.4 0.0
27/10:00pm 30.5 25.0 1.9 16 14.2 S 20 26 11 14 1013.5 1013.3 0.0
27/09:30pm 31.0 24.7 1.4 15 14.6 S 24 33 13 18 1013.4 1013.2 0.0
27/09:00pm 31.4 24.2 0.7 14 15.0 S 28 35 15 19 1013.2 1013.0 0.0
27/08:30pm 32.0 25.1 0.2 13 15.5 S 26 33 14 18 1012.8 1012.6 0.0
27/08:00pm 32.8 26.4 0.8 13 15.8 S 24 33 13 18 1012.7 1012.5 0.0
27/07:30pm 33.7 27.4 1.5 13 16.2 S 24 35 13 19 1012.3 1012.1 0.0
27/07:00pm 34.3 28.8 1.9 13 16.4 SSE 20 32 11 17 1012.0 1011.8 0.0
27/06:30pm 34.5 28.1 1.0 12 16.8 SSE 24 33 13 18 1011.6 1011.4 0.0
27/06:00pm 34.8 28.8 1.2 12 16.9 SSE 22 35 12 19 1011.4 1011.2 0.0
27/05:30pm 35.0 29.4 1.4 12 17.0 SSE 20 24 11 13 1011.7 1011.5 0.0
27/05:00pm 35.5 30.6 1.8 12 17.2 ESE 17 22 9 12 1011.8 1011.6 0.0
27/04:30pm 35.3 29.8 1.6 12 17.1 SE 20 30 11 16 1012.1 1011.9 0.0
27/04:00pm 35.3 29.8 1.6 12 17.1 SSE 20 30 11 16 1012.5 1012.3 0.0
27/03:30pm 34.9 28.6 1.3 12 17.0 ESE 24 32 13 17 1012.7 1012.5 0.0
27/03:00pm 34.6 28.4 -0.1 11 17.1 SSE 22 35 12 19 1013.0 1012.8 0.0
27/02:30pm 35.1 29.3 0.2 11 17.3 SE 20 39 11 21 1013.4 1013.2 0.0
27/02:00pm 35.1 29.7 -1.1 10 17.6 ESE 17 24 9 13 1013.7 1013.5 0.0
27/01:30pm 34.4 26.9 -1.6 10 17.3 ESE 28 35 15 19 1014.1 1013.9 0.0
27/01:00pm 34.5 28.1 -1.5 10 17.3 SE 22 33 12 18 1014.5 1014.3 0.0
27/12:30pm 34.1 26.9 -1.8 10 17.1 SE 26 39 14 21 1014.8 1014.6 0.0
27/12:00pm 33.7 26.1 -2.1 10 16.9 SE 28 43 15 23 1015.1 1014.9 0.0
27/11:30am 32.7 25.3 -0.4 12 16.0 SE 28 39 15 21 1015.7 1015.5 0.0
27/11:00am 31.7 23.6 -0.1 13 15.4 SE 32 43 17 23 1015.9 1015.7 0.0
27/10:30am 31.1 23.1 0.5 14 14.9 SE 32 41 17 22 1016.1 1015.9 0.0
27/10:00am 30.0 22.2 1.5 16 14.0 SE 32 44 17 24 1016.5 1016.3 0.0
27/09:30am 29.0 21.7 2.3 18 13.2 SE 30 41 16 22 1016.6 1016.4 0.0
27/09:00am 27.5 19.1 1.8 19 12.4 SE 35 44 19 24 1016.7 1016.5 0.0
27/08:30am 25.9 18.1 1.9 21 11.5 ESE 32 44 17 24 1016.6 1016.4 0.0
27/08:00am 24.7 17.3 1.6 22 10.9 SE 30 39 16 21 1016.5 1016.3 0.0
27/07:30am 23.5 17.1 1.2 23 10.4 SE 24 32 13 17 1016.1 1015.9 0.0
27/07:00am 23.0 16.6 0.8 23 10.2 SE 24 37 13 20 1015.7 1015.5 0.0
27/06:30am 22.3 15.5 0.8 24 9.8 SE 26 37 14 20 1015.4 1015.2 0.0
27/06:00am 22.2 16.1 0.1 23 10.0 SSE 22 35 12 19 1015.3 1015.1 0.0
27/05:30am 22.3 16.1 -0.4 22 10.1 SSE 22 32 12 17 1015.0 1014.8 0.0
27/05:00am 21.5 15.6 -0.5 23 9.8 SSE 20 28 11 15 1014.7 1014.5 0.0
27/04:30am 21.6 16.6 -1.0 22 9.9 S 15 19 8 10 1014.6 1014.4 0.0
27/04:00am 22.5 17.1 -1.6 20 10.6 S 17 22 9 12 1014.4 1014.2 0.0
27/03:30am 23.8 17.9 -1.9 18 11.3 SSE 19 32 10 17 1014.3 1014.1 0.0
27/03:00am 24.4 17.9 -2.2 17 11.7 SE 22 30 12 16 1014.1 1013.9 0.0
27/02:30am 24.7 18.6 -2.0 17 11.8 SE 20 30 11 16 1014.1 1013.9 0.0
27/02:00am 24.8 18.7 -2.7 16 12.0 SE 20 30 11 16 1014.2 1014.0 0.0
27/01:30am 25.2 18.7 -2.4 16 12.2 SE 22 30 12 16 1014.4 1014.2 0.0
27/01:00am 26.3 19.8 -2.4 15 12.8 SSE 22 30 12 16 1014.6 1014.4 0.0
27/12:30am 25.6 19.4 -2.9 15 12.5 SSE 20 28 11 15 1014.7 1014.5 0.0
27/12:00am 25.8 19.8 -2.8 15 12.6 S 19 28 10 15 1015.2 1015.0 0.0
 
Date/Time
CDT
Temp
°C
App
Temp
°C
Dew
Point
Rel
Hum
%
Delta-T
°C
Wind Press
QNH
hPa
Press
MSL
hPa
Rain
since 9 am
mm
Dir
 
Spd
km/h
Gust
km/h
Spd
kts
Gust
kts
26/11:30pm 26.2 20.7 -2.4 15 12.7 S 17 24 9 13 1015.3 1015.1 0.0
26/11:00pm 26.8 20.8 -2.9 14 13.2 S 19 24 10 13 1015.3 1015.1 0.0
26/10:30pm 27.4 21.4 -3.4 13 13.6 S 19 26 10 14 1015.1 1014.9 0.0
26/10:00pm 28.1 22.0 -3.9 12 14.1 S 19 24 10 13 1014.9 1014.7 0.0
26/09:30pm 29.0 22.7 -4.4 11 14.7 S 20 28 11 15 1014.4 1014.2 0.0
26/09:00pm 29.8 22.6 -5.1 10 15.2 S 24 28 13 15 1014.3 1014.1 0.0
26/08:30pm 30.6 23.9 -4.5 10 15.6 S 22 32 12 17 1013.9 1013.7 0.0
26/08:00pm 31.5 23.2 -5.2 9 16.2 S 30 37 16 20 1013.6 1013.4 0.0
26/07:30pm 32.6 24.4 -4.3 9 16.7 S 30 39 16 21 1013.2 1013.0 0.0
26/07:00pm 33.5 26.5 -3.7 9 17.1 S 24 39 13 21 1012.9 1012.7 0.0
26/06:30pm 34.1 27.0 -4.8 8 17.7 S 24 33 13 18 1012.6 1012.4 0.0
26/06:00pm 34.5 28.3 -2.9 9 17.6 SSE 20 32 11 17 1012.6 1012.4 0.0
26/05:30pm 34.7 28.5 -2.8 9 17.7 SSE 20 30 11 16 1012.6 1012.4 0.0
26/05:00pm 35.0 27.3 -2.6 9 17.8 SSE 28 35 15 19 1012.5 1012.3 0.0
26/04:30pm 34.8 27.9 -2.7 9 17.7 SE 24 30 13 16 1012.8 1012.6 0.0
26/04:00pm 34.6 28.6 -1.4 10 17.4 S 20 28 11 15 1013.1 1012.9 0.0
26/03:30pm 34.4 28.8 -0.3 11 17.0 SSE 19 28 10 15 1013.4 1013.2 0.0
26/03:00pm 34.7 29.9 -0.1 11 17.1 S 15 22 8 12 1013.7 1013.5 0.0
26/02:30pm 33.8 27.7 0.5 12 16.5 SE 22 32 12 17 1014.1 1013.9 0.0
26/02:00pm 33.9 28.7 2.7 14 16.0 SE 19 28 10 15 1014.5 1014.3 0.0
26/01:30pm 33.6 28.0 3.4 15 15.6 SE 22 32 12 17 1014.8 1014.6 0.0
26/01:00pm 32.8 26.7 2.8 15 15.3 SSE 24 33 13 18 1015.3 1015.1 0.0
26/12:30pm 32.2 25.9 1.3 14 15.3 SSE 24 33 13 18 1015.6 1015.4 0.0
26/12:00pm 31.4 25.3 0.7 14 15.0 SSE 22 33 12 18 1016.2 1016.0 0.0
26/11:30am 30.9 24.6 1.3 15 14.5 SE 24 33 13 18 1016.6 1016.4 0.0
26/11:00am 29.9 22.5 -0.5 14 14.4 SE 28 35 15 19 1016.8 1016.6 0.0
26/10:30am 29.2 21.9 -0.1 15 13.9 ESE 28 35 15 19 1016.9 1016.7 0.0
26/10:00am 28.5 21.2 0.3 16 13.4 SE 28 37 15 20 1017.2 1017.0 0.0
26/09:30am 27.5 20.2 0.3 17 12.8 SE 28 37 15 20 1017.4 1017.2 0.0
26/09:00am 25.8 18.6 0.5 19 11.8 SE 28 35 15 19 1017.4 1017.2 0.0
26/08:30am 24.1 17.2 0.4 21 10.9 ESE 26 33 14 18 1017.5 1017.3 0.0
26/08:00am 22.6 16.2 1.0 24 10.0 ESE 24 32 13 17 1017.3 1017.1 0.0
26/07:30am 21.4 16.0 1.1 26 9.3 SE 19 24 10 13 1017.0 1016.8 0.0
26/07:00am 20.5 15.0 0.9 27 8.9 SE 19 24 10 13 1016.7 1016.5 0.0
26/06:30am 20.5 14.5 0.9 27 8.8 SE 22 32 12 17 1016.3 1016.1 0.0
26/06:00am 21.1 15.5 1.4 27 9.0 SE 20 28 11 15 1015.9 1015.7 0.0
26/05:30am 20.2 15.6 1.6 29 8.5 SE 15 19 8 10 1015.8 1015.6 0.0
26/05:00am 20.6 15.6 1.5 28 8.7 SE 17 22 9 12 1015.5 1015.3 0.0
26/04:30am 20.5 16.0 1.9 29 8.6 SE 15 20 8 11 1015.3 1015.1 0.0
26/04:00am 21.2 16.3 2.0 28 8.9 SE 17 24 9 13 1015.0 1014.8 0.0
26/03:30am 22.3 16.4 1.9 26 9.5 SE 22 32 12 17 1014.9 1014.7 0.0
26/03:00am 22.8 17.4 2.3 26 9.7 SE 20 30 11 16 1015.1 1014.9 0.0
26/02:30am 23.8 17.9 2.0 24 10.3 SE 22 28 12 15 1015.3 1015.1 0.0
26/02:00am 23.5 18.0 1.8 24 10.2 SE 20 28 11 15 1015.7 1015.5 0.0
26/01:30am 24.5 19.0 2.0 23 10.7 SE 20 32 11 17 1015.8 1015.6 0.0
26/01:00am 24.6 19.1 2.1 23 10.7 SSE 20 30 11 16 1016.1 1015.9 0.0
26/12:30am 25.0 19.6 2.4 23 10.9 SSE 20 35 11 19 1016.3 1016.1 0.0
26/12:00am 24.6 19.2 2.7 24 10.6 SSE 20 30 11 16 1016.7 1016.5 0.0
 
Date/Time
CDT
Temp
°C
App
Temp
°C
Dew
Point
Rel
Hum
%
Delta-T
°C
Wind Press
QNH
hPa
Press
MSL
hPa
Rain
since 9 am
mm
Dir
 
Spd
km/h
Gust
km/h
Spd
kts
Gust
kts
25/11:30pm 25.0 19.9 3.0 24 10.7 S 19 26 10 14 1016.7 1016.5 0.0
25/11:00pm 25.6 19.9 2.9 23 11.1 S 22 32 12 17 1016.4 1016.2 0.0
25/10:30pm 26.1 20.9 3.4 23 11.2 S 20 28 11 15 1016.4 1016.2 0.0
25/10:00pm 26.6 21.1 3.8 23 11.4 S 22 28 12 15 1016.2 1016.0 0.0
25/09:30pm 27.2 21.8 4.3 23 11.6 S 22 30 12 16 1015.9 1015.7 0.0
25/09:00pm 27.8 22.5 4.8 23 11.8 S 22 32 12 17 1015.5 1015.3 0.0
25/08:30pm 28.5 23.4 6.0 24 11.8 S 22 30 12 16 1015.3 1015.1 0.0
25/08:00pm 29.1 24.2 7.1 25 11.8 SSE 22 30 12 16 1015.1 1014.9 0.0
25/07:30pm 29.7 24.7 8.2 26 11.8 SSE 24 33 13 18 1014.7 1014.5 0.0
25/07:00pm 29.8 25.2 8.2 26 11.9 S 22 32 12 17 1014.1 1013.9 0.0
25/06:30pm 30.1 25.1 7.9 25 12.1 S 24 33 13 18 1013.7 1013.5 0.0
25/06:00pm 30.1 25.4 7.9 25 12.1 SE 22 32 12 17 1014.0 1013.8 0.0
25/05:30pm 30.3 26.4 8.7 26 12.0 SSE 19 30 10 16 1014.1 1013.9 0.0
25/05:00pm 30.1 25.4 7.9 25 12.1 SE 22 35 12 19 1014.5 1014.3 0.0
25/04:30pm 30.0 24.9 7.8 25 12.1 SE 24 32 13 17 1014.8 1014.6 0.0
25/04:00pm 30.1 25.8 7.9 25 12.1 SE 20 30 11 16 1015.0 1014.8 0.0
25/03:30pm 29.6 24.7 6.9 24 12.2 SSE 22 33 12 18 1015.4 1015.2 0.0
25/03:00pm 29.9 25.1 7.2 24 12.3 SE 22 32 12 17 1015.7 1015.5 0.0
25/02:30pm 29.5 23.8 6.8 24 12.1 SE 26 39 14 21 1015.9 1015.7 0.0
25/02:00pm 28.5 22.6 6.0 24 11.8 SE 26 37 14 20 1016.3 1016.1 0.0
25/01:30pm 27.9 22.1 6.1 25 11.4 SE 26 37 14 20 1016.5 1016.3 0.0
25/01:00pm 27.6 21.5 6.4 26 11.2 SE 28 43 15 23 1016.7 1016.5 0.0
25/12:30pm 27.2 20.8 7.1 28 10.7 SE 30 41 16 22 1016.9 1016.7 0.0
25/12:00pm 26.2 19.4 6.8 29 10.2 SE 32 46 17 25 1017.2 1017.0 0.0
25/11:30am 25.6 18.1 6.3 29 10.0 ESE 35 48 19 26 1017.5 1017.3 0.0
25/11:00am 25.2 18.8 8.7 35 8.9 SE 32 46 17 25 1017.5 1017.3 0.0
25/10:30am 24.8 17.9 8.7 36 8.7 SE 35 50 19 27 1017.7 1017.5 0.0
25/10:00am 23.9 17.2 9.5 40 7.8 SE 35 46 19 25 1017.7 1017.5 0.0
25/09:30am 23.5 16.6 8.8 39 7.9 SE 35 50 19 27 1017.6 1017.4 0.0
25/09:00am 22.9 15.7 10.7 46 6.7 SE 39 54 21 29 1017.2 1017.0 0.6
25/08:40am 22.6 15.7 10.4 46 6.7 SE 37 56 20 30 1017.1 1016.9 0.6
25/08:30am 22.1 14.1 10.3 47 6.4 SE 43 57 23 31 1017.0 1016.8 0.6

Other Formats:

Comma delimited format used in spreadsheet applications
http://www.bom.gov.au/fwo/IDS60801/IDS60801.95481.axf

JavaScript Object Notation format (JSON) in row-major order
http://www.bom.gov.au/fwo/IDS60801/IDS60801.95481.json